Terminal Aerodrome Forecast
Issued by NWS

Home | Current Version | Previous Version | Text Only | Print | Product List | Glossary On
Versions: 1 2 3 4 5 6 7 8 9 10 11 12 13 14 15 16 17 18 19 20 21 22 23 24
298
FTUS41 KOKX 240001 RRA
TAFSWF
TAF
KSWF 240001Z 2400/2506 27004KT P6SM FEW250
     FM240200 VRB03KT P6SM FEW250
     FM241300 23008KT P6SM -SNPL OVC060
     FM241500 23010G18KT 5SM -SNPLRA OVC025
     FM241700 23010G18KT 5SM -RA BR OVC015
     FM242200 25008KT P6SM VCSH SCT020 BKN050
     FM250400 27006KT P6SM SCT020 SCT060
      AMD NOT SKED=

USA.gov is the U.S. government's official web portal to all federal, state and local government web resources and services.